sensor_id;sensor_type;location;lat;lon;timestamp;temperature;humidity
21807;DHT22;11065;50.786;7.840;2022-11-18T00:02:06;11.80;58.30
21807;DHT22;11065;50.786;7.840;2022-11-18T00:04:33;11.90;58.40
21807;DHT22;11065;50.786;7.840;2022-11-18T00:06:59;11.80;58.30
21807;DHT22;11065;50.786;7.840;2022-11-18T00:09:26;11.80;58.30
21807;DHT22;11065;50.786;7.840;2022-11-18T00:11:53;11.80;58.30
21807;DHT22;11065;50.786;7.840;2022-11-18T00:14:39;11.80;58.40
21807;DHT22;11065;50.786;7.840;2022-11-18T00:17:06;11.80;58.40
21807;DHT22;11065;50.786;7.840;2022-11-18T00:19:38;11.70;58.40
21807;DHT22;11065;50.786;7.840;2022-11-18T00:22:07;11.70;58.50
21807;DHT22;11065;50.786;7.840;2022-11-18T00:24:36;11.70;58.50
21807;DHT22;11065;50.786;7.840;2022-11-18T00:27:03;11.70;58.50
21807;DHT22;11065;50.786;7.840;2022-11-18T00:29:30;11.70;58.50
21807;DHT22;11065;50.786;7.840;2022-11-18T00:31:57;11.70;58.50
21807;DHT22;11065;50.786;7.840;2022-11-18T00:34:24;11.70;58.50
21807;DHT22;11065;50.786;7.840;2022-11-18T00:36:51;11.70;58.40
21807;DHT22;11065;50.786;7.840;2022-11-18T00:39:19;11.70;58.40
21807;DHT22;11065;50.786;7.840;2022-11-18T00:41:47;11.60;58.40
21807;DHT22;11065;50.786;7.840;2022-11-18T00:44:32;11.60;58.50
21807;DHT22;11065;50.786;7.840;2022-11-18T00:46:59;11.60;58.50
21807;DHT22;11065;50.786;7.840;2022-11-18T00:49:26;11.60;58.60
21807;DHT22;11065;50.786;7.840;2022-11-18T00:51:53;11.60;58.60
21807;DHT22;11065;50.786;7.840;2022-11-18T00:54:21;11.60;58.70
21807;DHT22;11065;50.786;7.840;2022-11-18T00:56:48;11.60;58.70
21807;DHT22;11065;50.786;7.840;2022-11-18T00:59:15;11.60;58.70
21807;DHT22;11065;50.786;7.840;2022-11-18T01:01:43;11.60;58.70
21807;DHT22;11065;50.786;7.840;2022-11-18T01:04:10;11.60;58.80
21807;DHT22;11065;50.786;7.840;2022-11-18T01:06:36;11.60;58.80
21807;DHT22;11065;50.786;7.840;2022-11-18T01:09:04;11.60;59.20
21807;DHT22;11065;50.786;7.840;2022-11-18T01:11:30;11.60;58.80
21807;DHT22;11065;50.786;7.840;2022-11-18T01:14:16;11.60;58.80
21807;DHT22;11065;50.786;7.840;2022-11-18T01:16:43;11.60;58.80
21807;DHT22;11065;50.786;7.840;2022-11-18T01:19:10;11.60;58.90
21807;DHT22;11065;50.786;7.840;2022-11-18T01:21:37;11.60;58.90
21807;DHT22;11065;50.786;7.840;2022-11-18T01:24:04;11.60;58.90
21807;DHT22;11065;50.786;7.840;2022-11-18T01:26:31;11.60;58.90
21807;DHT22;11065;50.786;7.840;2022-11-18T01:28:58;11.60;58.90
21807;DHT22;11065;50.786;7.840;2022-11-18T01:31:25;11.60;58.90
21807;DHT22;11065;50.786;7.840;2022-11-18T01:33:52;11.60;58.90
21807;DHT22;11065;50.786;7.840;2022-11-18T01:36:21;11.60;58.90
21807;DHT22;11065;50.786;7.840;2022-11-18T01:38:49;11.60;59.00
21807;DHT22;11065;50.786;7.840;2022-11-18T01:41:22;11.60;59.00
21807;DHT22;11065;50.786;7.840;2022-11-18T01:44:00;11.50;58.90
21807;DHT22;11065;50.786;7.840;2022-11-18T01:46:29;11.50;59.10
21807;DHT22;11065;50.786;7.840;2022-11-18T01:49:15;11.60;59.10
21807;DHT22;11065;50.786;7.840;2022-11-18T01:51:50;11.50;59.00
21807;DHT22;11065;50.786;7.840;2022-11-18T01:54:22;11.50;59.20
21807;DHT22;11065;50.786;7.840;2022-11-18T01:56:53;11.60;59.20
21807;DHT22;11065;50.786;7.840;2022-11-18T01:59:30;11.50;59.20
21807;DHT22;11065;50.786;7.840;2022-11-18T02:01:58;11.50;59.20
21807;DHT22;11065;50.786;7.840;2022-11-18T02:04:26;11.60;59.10
21807;DHT22;11065;50.786;7.840;2022-11-18T02:06:53;11.60;59.10
21807;DHT22;11065;50.786;7.840;2022-11-18T02:09:21;11.60;59.10
21807;DHT22;11065;50.786;7.840;2022-11-18T02:11:49;11.60;59.20
21807;DHT22;11065;50.786;7.840;2022-11-18T02:14:36;11.60;59.20
21807;DHT22;11065;50.786;7.840;2022-11-18T02:17:31;11.60;59.40
21807;DHT22;11065;50.786;7.840;2022-11-18T02:20:45;11.60;59.40
21807;DHT22;11065;50.786;7.840;2022-11-18T02:23:39;11.60;59.20
21807;DHT22;11065;50.786;7.840;2022-11-18T02:29:08;11.60;59.20
21807;DHT22;11065;50.786;7.840;2022-11-18T02:34:17;11.60;59.50
21807;DHT22;11065;50.786;7.840;2022-11-18T02:39:36;11.60;59.70
21807;DHT22;11065;50.786;7.840;2022-11-18T02:42:08;11.60;59.50
21807;DHT22;11065;50.786;7.840;2022-11-18T02:44:38;11.60;59.50
21807;DHT22;11065;50.786;7.840;2022-11-18T02:47:07;11.60;59.40
21807;DHT22;11065;50.786;7.840;2022-11-18T02:49:38;11.70;59.40
21807;DHT22;11065;50.786;7.840;2022-11-18T02:52:06;11.60;59.30
21807;DHT22;11065;50.786;7.840;2022-11-18T02:54:35;11.60;59.30
21807;DHT22;11065;50.786;7.840;2022-11-18T02:57:05;11.60;59.30
21807;DHT22;11065;50.786;7.840;2022-11-18T02:59:32;11.60;59.40
21807;DHT22;11065;50.786;7.840;2022-11-18T03:01:59;11.60;59.30
21807;DHT22;11065;50.786;7.840;2022-11-18T03:04:26;11.60;59.40
21807;DHT22;11065;50.786;7.840;2022-11-18T03:09:34;11.60;59.50
21807;DHT22;11065;50.786;7.840;2022-11-18T03:12:10;11.60;59.40
21807;DHT22;11065;50.786;7.840;2022-11-18T03:15:10;11.60;59.40
21807;DHT22;11065;50.786;7.840;2022-11-18T03:18:00;11.60;59.70
21807;DHT22;11065;50.786;7.840;2022-11-18T03:20:52;11.60;59.70
21807;DHT22;11065;50.786;7.840;2022-11-18T03:23:33;11.60;59.70
21807;DHT22;11065;50.786;7.840;2022-11-18T03:26:05;11.60;59.60
21807;DHT22;11065;50.786;7.840;2022-11-18T03:28:43;11.60;59.60
21807;DHT22;11065;50.786;7.840;2022-11-18T03:36:41;11.50;59.70
21807;DHT22;11065;50.786;7.840;2022-11-18T03:39:16;11.60;59.70
21807;DHT22;11065;50.786;7.840;2022-11-18T03:41:49;11.60;59.70
21807;DHT22;11065;50.786;7.840;2022-11-18T03:44:20;11.60;59.80
21807;DHT22;11065;50.786;7.840;2022-11-18T03:47:09;11.60;59.90
21807;DHT22;11065;50.786;7.840;2022-11-18T03:49:42;11.60;60.30
21807;DHT22;11065;50.786;7.840;2022-11-18T03:52:14;11.60;59.90
21807;DHT22;11065;50.786;7.840;2022-11-18T03:54:46;11.60;59.90
21807;DHT22;11065;50.786;7.840;2022-11-18T04:00:07;11.60;60.10
21807;DHT22;11065;50.786;7.840;2022-11-18T04:02:36;11.60;59.90
21807;DHT22;11065;50.786;7.840;2022-11-18T04:05:06;11.60;59.80
21807;DHT22;11065;50.786;7.840;2022-11-18T04:07:40;11.60;59.80
21807;DHT22;11065;50.786;7.840;2022-11-18T04:10:19;11.60;59.80
21807;DHT22;11065;50.786;7.840;2022-11-18T04:13:11;11.70;59.90
21807;DHT22;11065;50.786;7.840;2022-11-18T04:15:41;11.60;60.00
21807;DHT22;11065;50.786;7.840;2022-11-18T04:18:09;11.60;59.70
21807;DHT22;11065;50.786;7.840;2022-11-18T04:20:36;11.60;59.70
21807;DHT22;11065;50.786;7.840;2022-11-18T04:23:05;11.60;59.70
21807;DHT22;11065;50.786;7.840;2022-11-18T04:25:32;11.70;59.80
21807;DHT22;11065;50.786;7.840;2022-11-18T04:27:59;11.60;59.70
21807;DHT22;11065;50.786;7.840;2022-11-18T04:30:27;11.60;59.70
21807;DHT22;11065;50.786;7.840;2022-11-18T04:32:54;11.60;59.80
21807;DHT22;11065;50.786;7.840;2022-11-18T04:35:20;11.60;59.80
21807;DHT22;11065;50.786;7.840;2022-11-18T04:37:47;11.60;59.80
21807;DHT22;11065;50.786;7.840;2022-11-18T04:40:14;11.60;59.80
21807;DHT22;11065;50.786;7.840;2022-11-18T04:42:41;11.70;59.90
21807;DHT22;11065;50.786;7.840;2022-11-18T04:45:09;11.70;59.90
21807;DHT22;11065;50.786;7.840;2022-11-18T04:47:36;11.70;59.90
21807;DHT22;11065;50.786;7.840;2022-11-18T04:50:03;11.70;59.80
21807;DHT22;11065;50.786;7.840;2022-11-18T04:52:30;11.70;59.90
21807;DHT22;11065;50.786;7.840;2022-11-18T04:54:57;11.60;59.80
21807;DHT22;11065;50.786;7.840;2022-11-18T04:57:24;11.70;59.90
21807;DHT22;11065;50.786;7.840;2022-11-18T04:59:51;11.60;59.90
21807;DHT22;11065;50.786;7.840;2022-11-18T05:02:17;11.60;60.00
21807;DHT22;11065;50.786;7.840;2022-11-18T05:04:44;11.60;60.10
21807;DHT22;11065;50.786;7.840;2022-11-18T05:07:14;11.70;60.10
21807;DHT22;11065;50.786;7.840;2022-11-18T05:09:41;11.70;60.30
21807;DHT22;11065;50.786;7.840;2022-11-18T05:12:13;11.70;60.20
21807;DHT22;11065;50.786;7.840;2022-11-18T05:14:58;11.70;60.30
21807;DHT22;11065;50.786;7.840;2022-11-18T05:17:25;11.70;60.20
21807;DHT22;11065;50.786;7.840;2022-11-18T05:19:52;11.70;60.20
21807;DHT22;11065;50.786;7.840;2022-11-18T05:22:19;11.70;60.20
21807;DHT22;11065;50.786;7.840;2022-11-18T05:24:46;11.70;60.20
21807;DHT22;11065;50.786;7.840;2022-11-18T05:27:13;11.70;60.20
21807;DHT22;11065;50.786;7.840;2022-11-18T05:29:40;11.70;60.30
21807;DHT22;11065;50.786;7.840;2022-11-18T05:32:07;11.70;60.20
21807;DHT22;11065;50.786;7.840;2022-11-18T05:34:34;11.70;60.20
21807;DHT22;11065;50.786;7.840;2022-11-18T05:37:00;11.70;60.20
21807;DHT22;11065;50.786;7.840;2022-11-18T05:39:27;11.70;60.30
21807;DHT22;11065;50.786;7.840;2022-11-18T05:41:54;11.70;60.30
21807;DHT22;11065;50.786;7.840;2022-11-18T05:44:40;11.70;60.30
21807;DHT22;11065;50.786;7.840;2022-11-18T05:47:06;11.70;60.20
21807;DHT22;11065;50.786;7.840;2022-11-18T05:49:33;11.70;60.20
21807;DHT22;11065;50.786;7.840;2022-11-18T05:52:00;11.70;60.30
21807;DHT22;11065;50.786;7.840;2022-11-18T05:54:27;11.70;60.30
21807;DHT22;11065;50.786;7.840;2022-11-18T05:56:54;11.70;60.10
21807;DHT22;11065;50.786;7.840;2022-11-18T05:59:21;11.70;60.20
21807;DHT22;11065;50.786;7.840;2022-11-18T06:01:58;11.70;60.20
21807;DHT22;11065;50.786;7.840;2022-11-18T06:04:36;11.70;60.50
21807;DHT22;11065;50.786;7.840;2022-11-18T06:07:09;11.70;60.40
21807;DHT22;11065;50.786;7.840;2022-11-18T06:09:40;11.70;60.40
21807;DHT22;11065;50.786;7.840;2022-11-18T06:12:13;11.70;60.40
21807;DHT22;11065;50.786;7.840;2022-11-18T06:14:48;11.70;60.50
21807;DHT22;11065;50.786;7.840;2022-11-18T06:17:21;11.70;60.50
21807;DHT22;11065;50.786;7.840;2022-11-18T06:19:50;11.70;60.40
21807;DHT22;11065;50.786;7.840;2022-11-18T06:22:17;11.70;60.30
21807;DHT22;11065;50.786;7.840;2022-11-18T06:24:44;11.70;60.30
21807;DHT22;11065;50.786;7.840;2022-11-18T06:27:12;11.70;60.30
21807;DHT22;11065;50.786;7.840;2022-11-18T06:29:39;11.70;60.30
21807;DHT22;11065;50.786;7.840;2022-11-18T06:32:06;11.70;60.30
21807;DHT22;11065;50.786;7.840;2022-11-18T06:34:33;11.70;60.30
21807;DHT22;11065;50.786;7.840;2022-11-18T06:37:18;11.70;60.20
21807;DHT22;11065;50.786;7.840;2022-11-18T06:39:46;11.70;60.60
21807;DHT22;11065;50.786;7.840;2022-11-18T06:42:13;11.70;60.40
21807;DHT22;11065;50.786;7.840;2022-11-18T06:45:01;11.70;60.50
21807;DHT22;11065;50.786;7.840;2022-11-18T06:47:28;11.70;60.50
21807;DHT22;11065;50.786;7.840;2022-11-18T06:49:55;11.70;60.50
21807;DHT22;11065;50.786;7.840;2022-11-18T06:52:22;11.70;60.60
21807;DHT22;11065;50.786;7.840;2022-11-18T06:54:49;11.70;61.30
21807;DHT22;11065;50.786;7.840;2022-11-18T06:57:16;11.70;60.60
21807;DHT22;11065;50.786;7.840;2022-11-18T06:59:43;11.70;60.70
21807;DHT22;11065;50.786;7.840;2022-11-18T07:02:09;11.70;60.60
21807;DHT22;11065;50.786;7.840;2022-11-18T07:04:36;11.70;60.70
21807;DHT22;11065;50.786;7.840;2022-11-18T07:07:08;11.70;60.70
21807;DHT22;11065;50.786;7.840;2022-11-18T07:09:36;11.70;60.90
21807;DHT22;11065;50.786;7.840;2022-11-18T07:12:03;11.70;60.80
21807;DHT22;11065;50.786;7.840;2022-11-18T07:14:30;11.70;60.90
21807;DHT22;11065;50.786;7.840;2022-11-18T07:16:57;11.70;60.80
21807;DHT22;11065;50.786;7.840;2022-11-18T07:19:24;11.70;60.80
21807;DHT22;11065;50.786;7.840;2022-11-18T07:21:51;11.70;60.70
21807;DHT22;11065;50.786;7.840;2022-11-18T07:24:17;11.70;60.70
21807;DHT22;11065;50.786;7.840;2022-11-18T07:26:44;11.70;60.80
21807;DHT22;11065;50.786;7.840;2022-11-18T07:29:12;11.80;61.00
21807;DHT22;11065;50.786;7.840;2022-11-18T07:31:39;11.80;61.10
21807;DHT22;11065;50.786;7.840;2022-11-18T07:34:06;11.80;61.10
21807;DHT22;11065;50.786;7.840;2022-11-18T07:36:34;11.80;61.10
21807;DHT22;11065;50.786;7.840;2022-11-18T07:39:03;11.80;61.10
21807;DHT22;11065;50.786;7.840;2022-11-18T07:41:31;11.80;61.20
21807;DHT22;11065;50.786;7.840;2022-11-18T07:43:59;11.90;61.20
21807;DHT22;11065;50.786;7.840;2022-11-18T07:46:34;11.90;61.30
21807;DHT22;11065;50.786;7.840;2022-11-18T07:49:03;11.90;61.30
21807;DHT22;11065;50.786;7.840;2022-11-18T07:51:33;11.90;61.90
21807;DHT22;11065;50.786;7.840;2022-11-18T07:54:04;11.90;61.30
21807;DHT22;11065;50.786;7.840;2022-11-18T07:56:31;12.00;61.40
21807;DHT22;11065;50.786;7.840;2022-11-18T07:58:58;12.00;61.30
21807;DHT22;11065;50.786;7.840;2022-11-18T08:01:25;12.00;61.20
21807;DHT22;11065;50.786;7.840;2022-11-18T08:04:03;12.00;61.20
21807;DHT22;11065;50.786;7.840;2022-11-18T08:06:32;12.10;61.20
21807;DHT22;11065;50.786;7.840;2022-11-18T08:09:00;12.10;61.10
21807;DHT22;11065;50.786;7.840;2022-11-18T08:11:27;12.10;61.10
21807;DHT22;11065;50.786;7.840;2022-11-18T08:13:53;12.10;61.00
21807;DHT22;11065;50.786;7.840;2022-11-18T08:16:23;12.10;60.70
21807;DHT22;11065;50.786;7.840;2022-11-18T08:18:50;12.10;60.70
21807;DHT22;11065;50.786;7.840;2022-11-18T08:21:18;12.10;60.70
21807;DHT22;11065;50.786;7.840;2022-11-18T08:23:54;12.10;61.00
21807;DHT22;11065;50.786;7.840;2022-11-18T08:26:21;12.20;61.30
21807;DHT22;11065;50.786;7.840;2022-11-18T08:28:48;12.20;61.30
21807;DHT22;11065;50.786;7.840;2022-11-18T08:31:23;12.20;61.30
21807;DHT22;11065;50.786;7.840;2022-11-18T08:34:02;12.30;61.30
21807;DHT22;11065;50.786;7.840;2022-11-18T08:36:32;12.30;61.10
21807;DHT22;11065;50.786;7.840;2022-11-18T08:39:01;12.30;60.90
21807;DHT22;11065;50.786;7.840;2022-11-18T08:41:36;12.30;60.70
21807;DHT22;11065;50.786;7.840;2022-11-18T08:44:04;12.40;60.90
21807;DHT22;11065;50.786;7.840;2022-11-18T08:46:31;12.40;61.10
21807;DHT22;11065;50.786;7.840;2022-11-18T08:48:58;12.40;61.10
21807;DHT22;11065;50.786;7.840;2022-11-18T08:51:25;12.50;61.10
21807;DHT22;11065;50.786;7.840;2022-11-18T08:53:52;12.50;61.20
21807;DHT22;11065;50.786;7.840;2022-11-18T08:56:20;12.60;61.40
21807;DHT22;11065;50.786;7.840;2022-11-18T08:58:47;12.60;61.40
21807;DHT22;11065;50.786;7.840;2022-11-18T09:01:14;12.70;61.20
21807;DHT22;11065;50.786;7.840;2022-11-18T09:03:41;12.70;61.00
21807;DHT22;11065;50.786;7.840;2022-11-18T09:06:10;12.70;60.80
21807;DHT22;11065;50.786;7.840;2022-11-18T09:08:37;12.70;60.60
21807;DHT22;11065;50.786;7.840;2022-11-18T09:11:22;12.70;60.30
21807;DHT22;11065;50.786;7.840;2022-11-18T09:13:54;12.70;60.30
21807;DHT22;11065;50.786;7.840;2022-11-18T09:16:41;12.70;60.40
21807;DHT22;11065;50.786;7.840;2022-11-18T09:19:08;12.70;60.40
21807;DHT22;11065;50.786;7.840;2022-11-18T09:21:55;12.70;60.50
21807;DHT22;11065;50.786;7.840;2022-11-18T09:24:22;12.70;60.50
21807;DHT22;11065;50.786;7.840;2022-11-18T09:26:48;12.70;60.60
21807;DHT22;11065;50.786;7.840;2022-11-18T09:29:15;12.70;60.70
21807;DHT22;11065;50.786;7.840;2022-11-18T09:31:42;12.70;60.70
21807;DHT22;11065;50.786;7.840;2022-11-18T09:34:09;12.80;60.80
21807;DHT22;11065;50.786;7.840;2022-11-18T09:36:36;12.80;60.90
21807;DHT22;11065;50.786;7.840;2022-11-18T09:39:03;12.80;60.90
21807;DHT22;11065;50.786;7.840;2022-11-18T09:41:45;12.80;61.00
21807;DHT22;11065;50.786;7.840;2022-11-18T09:49:51;12.90;61.10
21807;DHT22;11065;50.786;7.840;2022-11-18T09:52:35;12.90;60.90
21807;DHT22;11065;50.786;7.840;2022-11-18T09:55:14;12.90;60.70
21807;DHT22;11065;50.786;7.840;2022-11-18T09:57:45;13.00;60.70
21807;DHT22;11065;50.786;7.840;2022-11-18T10:00:20;13.00;60.70
21807;DHT22;11065;50.786;7.840;2022-11-18T10:05:30;13.00;60.90
21807;DHT22;11065;50.786;7.840;2022-11-18T10:08:22;13.00;61.00
21807;DHT22;11065;50.786;7.840;2022-11-18T10:11:05;13.10;61.20
21807;DHT22;11065;50.786;7.840;2022-11-18T10:19:27;13.10;60.80
21807;DHT22;11065;50.786;7.840;2022-11-18T10:24:58;13.20;61.20
21807;DHT22;11065;50.786;7.840;2022-11-18T10:27:35;13.20;61.10
21807;DHT22;11065;50.786;7.840;2022-11-18T10:30:18;13.20;61.20
21807;DHT22;11065;50.786;7.840;2022-11-18T10:35:44;13.30;61.00
21807;DHT22;11065;50.786;7.840;2022-11-18T10:41:07;13.30;60.50
21807;DHT22;11065;50.786;7.840;2022-11-18T10:43:51;13.30;60.40
21807;DHT22;11065;50.786;7.840;2022-11-18T10:46:30;13.30;60.40
21807;DHT22;11065;50.786;7.840;2022-11-18T10:51:37;13.40;60.70
21807;DHT22;11065;50.786;7.840;2022-11-18T10:54:08;13.40;60.80
21807;DHT22;11065;50.786;7.840;2022-11-18T10:59:31;13.50;61.00
21807;DHT22;11065;50.786;7.840;2022-11-18T11:02:02;13.50;61.00
21807;DHT22;11065;50.786;7.840;2022-11-18T11:04:36;13.60;61.00
21807;DHT22;11065;50.786;7.840;2022-11-18T11:12:54;13.60;60.90
21807;DHT22;11065;50.786;7.840;2022-11-18T11:18:05;13.60;60.50
21807;DHT22;11065;50.786;7.840;2022-11-18T11:20:51;13.70;60.70
21807;DHT22;11065;50.786;7.840;2022-11-18T11:23:18;13.70;61.50
21807;DHT22;11065;50.786;7.840;2022-11-18T11:26:01;13.80;63.20
21807;DHT22;11065;50.786;7.840;2022-11-18T11:28:55;14.20;65.30
21807;DHT22;11065;50.786;7.840;2022-11-18T11:34:23;15.00;64.60
21807;DHT22;11065;50.786;7.840;2022-11-18T11:39:51;15.50;61.50
21807;DHT22;11065;50.786;7.840;2022-11-18T11:45:16;15.60;58.60
21807;DHT22;11065;50.786;7.840;2022-11-18T11:50:32;15.60;58.30
21807;DHT22;11065;50.786;7.840;2022-11-18T11:56:30;15.40;58.10
21807;DHT22;11065;50.786;7.840;2022-11-18T12:02:20;15.40;58.30
21807;DHT22;11065;50.786;7.840;2022-11-18T12:05:10;15.40;58.30
21807;DHT22;11065;50.786;7.840;2022-11-18T12:07:56;15.50;58.10
21807;DHT22;11065;50.786;7.840;2022-11-18T12:10:49;15.40;58.00
21807;DHT22;11065;50.786;7.840;2022-11-18T12:18:57;16.40;63.70
21807;DHT22;11065;50.786;7.840;2022-11-18T12:24:24;17.80;62.00
21807;DHT22;11065;50.786;7.840;2022-11-18T12:27:11;18.30;59.90
21807;DHT22;11065;50.786;7.840;2022-11-18T12:29:59;18.70;56.10
21807;DHT22;11065;50.786;7.840;2022-11-18T12:32:37;18.80;55.30
21807;DHT22;11065;50.786;7.840;2022-11-18T12:40:40;18.50;54.50
21807;DHT22;11065;50.786;7.840;2022-11-18T12:46:57;18.50;56.60
21807;DHT22;11065;50.786;7.840;2022-11-18T12:54:35;19.20;56.50
21807;DHT22;11065;50.786;7.840;2022-11-18T12:57:19;19.50;56.10
21807;DHT22;11065;50.786;7.840;2022-11-18T12:59:47;19.80;55.80
21807;DHT22;11065;50.786;7.840;2022-11-18T13:02:21;20.10;56.70
21807;DHT22;11065;50.786;7.840;2022-11-18T13:05:10;20.40;55.10
21807;DHT22;11065;50.786;7.840;2022-11-18T13:07:48;20.60;53.50
21807;DHT22;11065;50.786;7.840;2022-11-18T13:13:27;20.60;53.10
21807;DHT22;11065;50.786;7.840;2022-11-18T13:15:55;20.50;51.90
21807;DHT22;11065;50.786;7.840;2022-11-18T13:18:50;20.40;52.20
21807;DHT22;11065;50.786;7.840;2022-11-18T13:21:23;20.10;51.40
21807;DHT22;11065;50.786;7.840;2022-11-18T13:24:13;19.90;51.00
21807;DHT22;11065;50.786;7.840;2022-11-18T13:26:42;19.70;51.00
21807;DHT22;11065;50.786;7.840;2022-11-18T13:34:48;18.90;50.80
21807;DHT22;11065;50.786;7.840;2022-11-18T13:37:21;18.60;50.70
21807;DHT22;11065;50.786;7.840;2022-11-18T13:39:49;18.40;51.00
21807;DHT22;11065;50.786;7.840;2022-11-18T13:42:27;18.20;51.30
21807;DHT22;11065;50.786;7.840;2022-11-18T13:44:56;18.00;51.20
21807;DHT22;11065;50.786;7.840;2022-11-18T13:50:35;17.60;51.20
21807;DHT22;11065;50.786;7.840;2022-11-18T13:53:33;17.40;51.30
21807;DHT22;11065;50.786;7.840;2022-11-18T13:56:24;17.30;51.90
21807;DHT22;11065;50.786;7.840;2022-11-18T13:59:00;17.30;52.50
21807;DHT22;11065;50.786;7.840;2022-11-18T14:01:43;17.20;52.80
21807;DHT22;11065;50.786;7.840;2022-11-18T14:06:43;17.10;52.60
21807;DHT22;11065;50.786;7.840;2022-11-18T14:09:26;17.10;52.80
21807;DHT22;11065;50.786;7.840;2022-11-18T14:12:02;17.10;52.90
21807;DHT22;11065;50.786;7.840;2022-11-18T14:19:43;16.90;53.00
21807;DHT22;11065;50.786;7.840;2022-11-18T14:22:24;16.90;53.30
21807;DHT22;11065;50.786;7.840;2022-11-18T14:25:02;16.80;53.30
21807;DHT22;11065;50.786;7.840;2022-11-18T14:27:51;16.80;53.30
21807;DHT22;11065;50.786;7.840;2022-11-18T14:33:32;16.60;53.00
21807;DHT22;11065;50.786;7.840;2022-11-18T14:36:02;16.50;52.90
21807;DHT22;11065;50.786;7.840;2022-11-18T14:41:21;16.30;53.00
21807;DHT22;11065;50.786;7.840;2022-11-18T14:44:11;16.10;52.90
21807;DHT22;11065;50.786;7.840;2022-11-18T14:46:41;16.00;52.90
21807;DHT22;11065;50.786;7.840;2022-11-18T14:49:15;15.90;52.90
21807;DHT22;11065;50.786;7.840;2022-11-18T14:51:44;15.70;53.00
21807;DHT22;11065;50.786;7.840;2022-11-18T14:54:15;15.60;53.00
21807;DHT22;11065;50.786;7.840;2022-11-18T14:56:54;15.50;53.00
21807;DHT22;11065;50.786;7.840;2022-11-18T14:59:22;15.40;53.10
21807;DHT22;11065;50.786;7.840;2022-11-18T15:01:49;15.20;53.10
21807;DHT22;11065;50.786;7.840;2022-11-18T15:04:16;15.10;53.10
21807;DHT22;11065;50.786;7.840;2022-11-18T15:06:44;15.00;53.20
21807;DHT22;11065;50.786;7.840;2022-11-18T15:09:10;14.90;53.40
21807;DHT22;11065;50.786;7.840;2022-11-18T15:11:38;14.70;53.50
21807;DHT22;11065;50.786;7.840;2022-11-18T15:14:05;14.60;53.60
21807;DHT22;11065;50.786;7.840;2022-11-18T15:16:33;14.50;53.80
21807;DHT22;11065;50.786;7.840;2022-11-18T15:19:02;14.40;53.90
21807;DHT22;11065;50.786;7.840;2022-11-18T15:21:30;14.40;54.00
21807;DHT22;11065;50.786;7.840;2022-11-18T15:23:57;14.20;54.00
21807;DHT22;11065;50.786;7.840;2022-11-18T15:26:28;14.20;54.20
21807;DHT22;11065;50.786;7.840;2022-11-18T15:28:56;14.10;54.20
21807;DHT22;11065;50.786;7.840;2022-11-18T15:31:24;14.00;54.00
21807;DHT22;11065;50.786;7.840;2022-11-18T15:33:51;14.00;53.90
21807;DHT22;11065;50.786;7.840;2022-11-18T15:36:20;13.90;53.70
21807;DHT22;11065;50.786;7.840;2022-11-18T15:38:48;13.80;53.50
21807;DHT22;11065;50.786;7.840;2022-11-18T15:41:17;13.70;53.40
21807;DHT22;11065;50.786;7.840;2022-11-18T15:43:45;13.60;53.20
21807;DHT22;11065;50.786;7.840;2022-11-18T15:46:12;13.50;53.40
21807;DHT22;11065;50.786;7.840;2022-11-18T15:48:39;13.40;53.50
21807;DHT22;11065;50.786;7.840;2022-11-18T15:51:07;13.30;53.70
21807;DHT22;11065;50.786;7.840;2022-11-18T15:53:38;13.30;53.80
21807;DHT22;11065;50.786;7.840;2022-11-18T15:58:50;13.20;53.90
21807;DHT22;11065;50.786;7.840;2022-11-18T16:01:17;13.20;54.00
21807;DHT22;11065;50.786;7.840;2022-11-18T16:03:44;13.10;54.10
21807;DHT22;11065;50.786;7.840;2022-11-18T16:06:11;13.10;54.30
21807;DHT22;11065;50.786;7.840;2022-11-18T16:08:38;13.10;54.40
21807;DHT22;11065;50.786;7.840;2022-11-18T16:11:04;13.00;54.40
21807;DHT22;11065;50.786;7.840;2022-11-18T16:13:50;13.00;54.50
21807;DHT22;11065;50.786;7.840;2022-11-18T16:18:44;12.90;54.50
21807;DHT22;11065;50.786;7.840;2022-11-18T16:21:11;12.80;54.50
21807;DHT22;11065;50.786;7.840;2022-11-18T16:23:38;12.80;54.70
21807;DHT22;11065;50.786;7.840;2022-11-18T16:26:05;12.70;54.70
21807;DHT22;11065;50.786;7.840;2022-11-18T16:28:32;12.70;54.70
21807;DHT22;11065;50.786;7.840;2022-11-18T16:30:59;12.60;54.70
21807;DHT22;11065;50.786;7.840;2022-11-18T16:33:44;12.60;54.80
21807;DHT22;11065;50.786;7.840;2022-11-18T16:36:11;12.50;54.80
21807;DHT22;11065;50.786;7.840;2022-11-18T16:38:38;12.50;54.90
21807;DHT22;11065;50.786;7.840;2022-11-18T16:41:04;12.40;55.00
21807;DHT22;11065;50.786;7.840;2022-11-18T16:43:51;12.30;55.00
21807;DHT22;11065;50.786;7.840;2022-11-18T16:46:18;12.30;55.00
21807;DHT22;11065;50.786;7.840;2022-11-18T16:48:45;12.20;55.10
21807;DHT22;11065;50.786;7.840;2022-11-18T16:51:23;12.10;55.10
21807;DHT22;11065;50.786;7.840;2022-11-18T16:53:54;12.10;55.30
21807;DHT22;11065;50.786;7.840;2022-11-18T16:56:27;12.10;55.20
21807;DHT22;11065;50.786;7.840;2022-11-18T16:59:02;12.00;55.20
21807;DHT22;11065;50.786;7.840;2022-11-18T17:01:30;11.90;55.30
21807;DHT22;11065;50.786;7.840;2022-11-18T17:03:58;11.80;55.20
21807;DHT22;11065;50.786;7.840;2022-11-18T17:06:30;11.80;55.30
21807;DHT22;11065;50.786;7.840;2022-11-18T17:08:57;11.70;55.30
21807;DHT22;11065;50.786;7.840;2022-11-18T17:11:25;11.70;55.80
21807;DHT22;11065;50.786;7.840;2022-11-18T17:13:52;11.60;55.40
21807;DHT22;11065;50.786;7.840;2022-11-18T17:16:24;11.60;55.40
21807;DHT22;11065;50.786;7.840;2022-11-18T17:18:56;11.60;55.40
21807;DHT22;11065;50.786;7.840;2022-11-18T17:21:25;11.50;55.50
21807;DHT22;11065;50.786;7.840;2022-11-18T17:23:52;11.50;55.50
21807;DHT22;11065;50.786;7.840;2022-11-18T17:26:23;11.40;55.40
21807;DHT22;11065;50.786;7.840;2022-11-18T17:28:50;11.30;55.40
21807;DHT22;11065;50.786;7.840;2022-11-18T17:31:19;11.30;55.40
21807;DHT22;11065;50.786;7.840;2022-11-18T17:33:47;11.20;55.40
21807;DHT22;11065;50.786;7.840;2022-11-18T17:36:16;11.20;55.50
21807;DHT22;11065;50.786;7.840;2022-11-18T17:38:46;11.10;55.50
21807;DHT22;11065;50.786;7.840;2022-11-18T17:41:15;11.10;55.60
21807;DHT22;11065;50.786;7.840;2022-11-18T17:44:02;11.10;55.80
21807;DHT22;11065;50.786;7.840;2022-11-18T17:46:30;11.10;55.90
21807;DHT22;11065;50.786;7.840;2022-11-18T17:49:15;11.00;55.90
21807;DHT22;11065;50.786;7.840;2022-11-18T17:51:44;11.00;55.90
21807;DHT22;11065;50.786;7.840;2022-11-18T17:54:13;11.00;55.80
21807;DHT22;11065;50.786;7.840;2022-11-18T17:56:40;11.00;55.90
21807;DHT22;11065;50.786;7.840;2022-11-18T17:59:08;11.00;56.00
21807;DHT22;11065;50.786;7.840;2022-11-18T18:01:34;11.00;56.00
21807;DHT22;11065;50.786;7.840;2022-11-18T18:04:01;11.00;56.00
21807;DHT22;11065;50.786;7.840;2022-11-18T18:06:28;10.90;55.90